Time;durP1;ratioP1;P1;durP2;ratioP2;P2;SDS_P1;SDS_P2;PMS_P1;PMS_P2;Temp;Humidity;BMP_temperature;BMP_pressure;BME280_temperature;BME280_humidity;BME280_pressure;Samples;Min_cycle;Max_cycle;Signal;HPM_P1;HPM_P2
2023/12/08 00:00:40;;;;;;;21.62;12.15;;;;;;;4.01;62.76;100088.13;7782589;32;38818;-80
2023/12/08 00:04:56;;;;;;;18.08;10.98;;;;;;;3.81;63.22;100088.31;7775720;32;37235;-81
2023/12/08 00:09:13;;;;;;;24.33;12.98;;;;;;;3.68;63.42;100091.91;7766233;32;40114;-80
2023/12/08 00:13:30;;;;;;;19.40;11.07;;;;;;;3.95;63.03;100105.19;7768665;32;39790;-80
2023/12/08 00:17:46;;;;;;;16.92;11.43;;;;;;;3.80;63.42;100108.22;7770977;32;38673;-81
2023/12/08 00:22:02;;;;;;;19.05;12.00;;;;;;;3.81;63.33;100103.62;7777536;32;36720;-80
2023/12/08 00:26:19;;;;;;;20.42;11.60;;;;;;;3.75;63.44;100116.13;7786856;32;39385;-80
2023/12/08 00:30:35;;;;;;;15.88;10.50;;;;;;;3.94;63.15;100119.72;7775109;32;39897;-80
2023/12/08 00:34:53;;;;;;;17.48;10.30;;;;;;;3.13;64.63;100132.88;7764938;32;38864;-80
2023/12/08 00:39:10;;;;;;;18.92;10.35;;;;;;;3.42;63.85;100129.84;7784133;32;36949;-81
2023/12/08 00:43:26;;;;;;;16.50;10.88;;;;;;;3.69;63.43;100128.63;7772907;32;37894;-80
2023/12/08 00:47:43;;;;;;;19.83;11.25;;;;;;;3.81;63.10;100136.00;7766265;32;40114;-78
2023/12/08 00:52:00;;;;;;;17.80;11.95;;;;;;;3.84;62.86;100133.69;7752717;32;38647;-81
2023/12/08 00:56:17;;;;;;;20.42;11.88;;;;;;;3.72;63.18;100133.56;7771166;32;37092;-81
2023/12/08 01:00:33;;;;;;;17.77;10.80;;;;;;;3.95;62.69;100145.66;7785212;32;39174;-81
2023/12/08 01:04:49;;;;;;;23.25;12.70;;;;;;;4.00;62.40;100143.13;7764186;32;40887;-80
2023/12/08 01:09:06;;;;;;;19.08;11.20;;;;;;;4.01;62.62;100131.28;7786162;32;37827;-81
2023/12/08 01:13:22;;;;;;;19.10;10.88;;;;;;;3.78;63.14;100137.28;7770397;32;35802;-81
2023/12/08 01:17:38;;;;;;;18.90;11.82;;;;;;;4.06;61.78;100139.53;7768857;32;39237;-80
2023/12/08 01:21:55;;;;;;;18.30;11.43;;;;;;;3.70;62.55;100135.66;7785439;32;41064;-80
2023/12/08 01:26:11;;;;;;;16.23;10.40;;;;;;;4.08;61.60;100140.12;7770305;32;38737;-82
2023/12/08 01:30:27;;;;;;;18.75;11.25;;;;;;;3.75;62.51;100143.91;7771550;32;36892;-81
2023/12/08 01:34:44;;;;;;;19.00;10.50;;;;;;;3.97;64.46;100145.41;7772566;32;39301;-80
2023/12/08 01:39:00;;;;;;;19.42;12.02;;;;;;;3.89;63.35;100149.22;7775135;32;40767;-79
2023/12/08 01:43:17;;;;;;;18.90;11.55;;;;;;;3.74;63.59;100142.28;7787091;32;38020;-80
2023/12/08 01:47:33;;;;;;;19.02;12.07;;;;;;;3.97;62.84;100148.13;7782082;32;35391;-80
2023/12/08 01:51:50;;;;;;;21.55;12.98;;;;;;;3.73;63.35;100140.62;7774891;32;39096;-80
2023/12/08 01:56:08;;;;;;;26.77;15.30;;;;;;;3.90;63.06;100134.72;7750037;32;41321;-79
2023/12/08 02:00:24;;;;;;;23.38;13.30;;;;;;;3.81;63.13;100136.84;7763670;32;38701;-81
2023/12/08 02:04:43;;;;;;;20.58;12.30;;;;;;;3.85;63.02;100143.44;7789903;32;35982;-81
2023/12/08 02:08:59;;;;;;;20.00;12.60;;;;;;;3.67;63.42;100130.69;7775096;32;39426;-80
2023/12/08 02:13:16;;;;;;;18.25;12.57;;;;;;;3.76;63.15;100124.00;7761743;32;40530;-80
2023/12/08 02:17:38;;;;;;;21.30;12.50;;;;;;;3.62;63.52;100124.31;7772205;32;38268;-80
2023/12/08 02:21:55;;;;;;;27.50;14.80;;;;;;;3.92;62.55;100121.81;7751879;32;37978;-80
2023/12/08 02:26:11;;;;;;;28.17;15.00;;;;;;;3.99;62.33;100127.97;7772758;32;40046;-81
2023/12/08 02:30:28;;;;;;;23.15;14.10;;;;;;;4.12;61.80;100119.78;7753916;32;39653;-82
2023/12/08 02:34:45;;;;;;;30.45;15.13;;;;;;;3.66;63.09;100123.66;7775880;32;38727;-82
2023/12/08 02:39:02;;;;;;;32.17;17.98;;;;;;;3.80;62.69;100135.19;7779944;32;37074;-81
2023/12/08 02:43:19;;;;;;;32.58;17.00;;;;;;;3.56;63.36;100134.09;7779323;32;39981;-81
2023/12/08 02:47:36;;;;;;;33.97;18.60;;;;;;;3.48;63.68;100126.28;7790929;32;38680;-83
2023/12/08 02:51:52;;;;;;;29.05;17.20;;;;;;;3.49;63.79;100136.84;7781179;32;40862;-81
2023/12/08 02:56:09;;;;;;;29.23;16.35;;;;;;;3.75;63.09;100121.53;7779369;32;37197;-80
2023/12/08 03:00:26;;;;;;;27.85;16.08;;;;;;;3.57;63.53;100133.06;7782202;32;39198;-81
2023/12/08 03:04:42;;;;;;;29.85;17.48;;;;;;;3.69;63.33;100135.87;7769462;32;40799;-80
2023/12/08 03:08:58;;;;;;;29.30;17.00;;;;;;;3.50;63.90;100137.66;7779528;32;38085;-80
2023/12/08 03:13:15;;;;;;;20.10;12.93;;;;;;;3.09;64.75;100133.53;7783661;32;37858;-80
2023/12/08 03:17:32;;;;;;;13.80;8.85;;;;;;;3.65;62.67;100127.41;7767958;32;39086;-81
2023/12/08 03:21:48;;;;;;;17.25;9.80;;;;;;;3.64;62.29;100130.31;7772248;32;40893;-81
2023/12/08 03:26:05;;;;;;;15.68;10.43;;;;;;;3.63;62.25;100129.50;7768268;32;37959;-80
2023/12/08 03:30:21;;;;;;;16.52;10.23;;;;;;;3.22;63.72;100141.53;7776942;32;37211;-80
2023/12/08 03:34:38;;;;;;;17.17;10.88;;;;;;;3.49;62.81;100134.12;7776459;32;39775;-80
2023/12/08 03:38:54;;;;;;;14.27;10.10;;;;;;;3.51;62.71;100142.00;7747082;32;40130;-81
2023/12/08 03:43:14;;;;;;;16.35;9.82;;;;;;;3.58;62.26;100127.44;7774642;32;38287;-81
2023/12/08 03:47:30;;;;;;;18.17;9.10;;;;;;;3.56;62.35;100134.09;7773083;32;37876;-81
2023/12/08 03:51:46;;;;;;;13.93;8.70;;;;;;;3.41;62.51;100129.00;7766479;32;39369;-80
2023/12/08 03:56:03;;;;;;;14.55;9.18;;;;;;;3.62;61.77;100127.00;7780394;32;40093;-82
2023/12/08 04:00:19;;;;;;;15.65;9.23;;;;;;;3.47;62.47;100130.03;7780283;32;37972;-81
2023/12/08 04:04:36;;;;;;;12.15;8.20;;;;;;;3.62;61.99;100122.44;7785334;32;36913;-80
2023/12/08 04:08:52;;;;;;;15.05;8.60;;;;;;;3.68;61.75;100121.56;7782659;32;40006;-82
2023/12/08 04:13:09;;;;;;;13.00;8.35;;;;;;;3.69;61.88;100117.00;7758708;32;40925;-81
2023/12/08 04:17:25;;;;;;;15.38;9.27;;;;;;;3.58;61.96;100116.66;7773354;32;38510;-81
2023/12/08 04:21:44;;;;;;;17.35;10.25;;;;;;;3.42;62.19;100109.09;7759179;32;37606;-81
2023/12/08 04:26:00;;;;;;;17.23;10.50;;;;;;;3.01;63.26;100103.09;7777044;32;37160;-81
2023/12/08 04:30:16;;;;;;;17.25;10.32;;;;;;;2.96;63.49;100100.22;7759994;32;40070;-81
2023/12/08 04:34:33;;;;;;;17.62;10.40;;;;;;;2.92;63.25;100095.50;7766494;32;36996;-82
2023/12/08 04:38:50;;;;;;;16.45;10.13;;;;;;;3.12;62.49;100096.22;7764983;32;36974;-81
2023/12/08 04:43:06;;;;;;;17.37;10.52;;;;;;;3.21;62.18;100094.09;7773248;32;39294;-82
2023/12/08 04:47:22;;;;;;;18.27;11.00;;;;;;;2.98;62.25;100082.00;7766447;32;39970;-80
2023/12/08 04:51:43;;;;;;;19.58;11.45;;;;;;;2.79;62.53;100083.72;7782417;32;37826;-80
2023/12/08 04:55:59;;;;;;;18.17;11.90;;;;;;;3.00;62.02;100088.00;7774624;32;37067;-82
2023/12/08 05:00:16;;;;;;;20.45;12.18;;;;;;;2.76;62.90;100084.16;7768374;32;39087;-82
2023/12/08 05:04:33;;;;;;;19.05;12.27;;;;;;;2.89;62.77;100095.91;7754556;32;40918;-80
2023/12/08 05:08:49;;;;;;;19.60;12.27;;;;;;;2.89;62.82;100095.91;7783942;32;37590;-81
2023/12/08 05:13:06;;;;;;;21.95;12.73;;;;;;;3.13;62.15;100092.47;7789742;32;37082;-81
2023/12/08 05:17:22;;;;;;;22.10;12.95;;;;;;;3.01;62.68;100103.09;7784031;32;40032;-79
2023/12/08 05:21:39;;;;;;;19.67;12.52;;;;;;;2.91;63.01;100109.97;7778370;32;40853;-80
2023/12/08 05:25:55;;;;;;;21.62;12.35;;;;;;;2.93;63.07;100113.28;7775131;32;37955;-80
2023/12/08 05:30:12;;;;;;;20.75;11.77;;;;;;;2.78;63.49;100121.66;7753624;32;37113;-80
2023/12/08 05:34:29;;;;;;;20.77;12.63;;;;;;;2.80;63.84;100120.38;7770862;32;39389;-79
2023/12/08 05:38:45;;;;;;;23.30;13.60;;;;;;;2.81;64.09;100124.72;7765948;32;40712;-80
2023/12/08 05:43:02;;;;;;;20.83;12.88;;;;;;;2.46;65.62;100126.06;7771412;32;38618;-81
2023/12/08 05:47:18;;;;;;;18.50;10.98;;;;;;;2.60;64.74;100120.47;7771531;32;37918;-80
2023/12/08 05:51:35;;;;;;;19.20;11.05;;;;;;;2.59;64.66;100118.78;7772003;32;39347;-80
2023/12/08 05:55:51;;;;;;;19.92;11.10;;;;;;;2.81;64.03;100118.50;7772198;32;39995;-80
2023/12/08 06:00:11;;;;;;;18.70;10.52;;;;;;;2.76;64.31;100113.78;7770062;32;37852;-80
2023/12/08 06:04:28;;;;;;;18.87;10.60;;;;;;;3.15;63.15;100113.81;7764463;32;37958;-79
2023/12/08 06:08:45;;;;;;;17.83;9.85;;;;;;;3.07;63.50;100114.91;7763369;32;39353;-80
2023/12/08 06:13:01;;;;;;;20.60;10.45;;;;;;;3.21;63.16;100121.03;7770879;32;41337;-80
2023/12/08 06:17:18;;;;;;;22.55;12.25;;;;;;;2.85;64.10;100121.63;7766604;32;38583;-80
2023/12/08 06:21:34;;;;;;;18.62;10.18;;;;;;;2.85;63.93;100138.59;7748739;32;37126;-82
2023/12/08 06:25:50;;;;;;;16.87;9.52;;;;;;;2.76;63.78;100134.47;7766083;32;39479;-80
2023/12/08 06:30:08;;;;;;;16.27;9.73;;;;;;;2.82;63.50;100139.84;7775307;32;39952;-83
2023/12/08 06:34:24;;;;;;;18.05;10.45;;;;;;;2.91;63.05;100137.72;7793355;32;37852;-82
2023/12/08 06:38:40;;;;;;;16.98;10.52;;;;;;;3.04;62.77;100144.12;7793727;32;37133;-82
2023/12/08 06:42:57;;;;;;;16.52;10.50;;;;;;;2.73;63.35;100138.41;7793531;32;40017;-80
2023/12/08 06:47:13;;;;;;;19.23;10.85;;;;;;;2.82;63.21;100139.84;7775889;32;40693;-80
2023/12/08 06:51:30;;;;;;;17.15;10.07;;;;;;;3.00;62.94;100151.78;7765435;32;39023;-81
2023/12/08 06:55:46;;;;;;;17.08;9.60;;;;;;;2.78;63.77;100154.78;7765527;32;37796;-82
2023/12/08 07:00:07;;;;;;;16.77;10.45;;;;;;;3.04;63.03;100146.81;7765474;32;39181;-82
2023/12/08 07:04:24;;;;;;;16.52;10.73;;;;;;;2.43;65.02;100146.13;7765328;32;40643;-82
2023/12/08 07:08:40;;;;;;;20.45;11.15;;;;;;;3.00;63.51;100136.47;7764478;32;37661;-80
2023/12/08 07:12:57;;;;;;;23.40;11.75;;;;;;;2.81;63.90;100138.19;7766110;32;37932;-80
2023/12/08 07:17:13;;;;;;;36.70;14.55;;;;;;;2.99;63.64;100150.97;7778807;32;40051;-86
2023/12/08 07:21:29;;;;;;;38.45;13.75;;;;;;;3.16;62.96;100166.66;7793261;32;39944;-81
2023/12/08 07:25:46;;;;;;;47.13;15.32;;;;;;;2.83;63.96;100173.00;7792693;32;37790;-81
2023/12/08 07:30:03;;;;;;;45.65;16.08;;;;;;;2.48;64.72;100170.56;7787264;32;37229;-81
2023/12/08 07:34:20;;;;;;;31.98;14.10;;;;;;;2.66;64.62;100161.00;7751808;32;39899;-81
2023/12/08 07:38:36;;;;;;;29.58;14.82;;;;;;;2.76;64.85;100159.53;7751670;32;40125;-82
2023/12/08 07:42:53;;;;;;;33.53;15.50;;;;;;;2.88;63.85;100148.94;7765696;32;38046;-82
2023/12/08 07:47:09;;;;;;;40.33;16.40;;;;;;;2.96;64.44;100134.41;7770496;32;37233;-80
2023/12/08 07:51:27;;;;;;;34.92;16.25;;;;;;;2.99;64.47;100128.59;7781311;32;39076;-83
2023/12/08 07:55:43;;;;;;;40.40;17.48;;;;;;;3.16;63.56;100145.94;7767226;32;40005;-83
2023/12/08 08:00:00;;;;;;;57.40;17.62;;;;;;;3.17;63.50;100160.22;7766447;32;37714;-83
2023/12/08 08:04:17;;;;;;;102.00;17.60;;;;;;;2.24;67.12;100169.34;7782051;32;37993;-81
2023/12/08 08:08:35;;;;;;;26.10;13.88;;;;;;;2.08;66.68;100172.47;7792599;32;39154;-82
2023/12/08 08:12:51;;;;;;;25.98;13.40;;;;;;;2.39;65.59;100169.13;7787218;32;39220;-79
2023/12/08 08:17:07;;;;;;;27.27;14.10;;;;;;;2.62;65.25;100174.06;7791429;32;38532;-84
2023/12/08 08:21:24;;;;;;;19.95;11.55;;;;;;;2.37;65.86;100163.13;7792033;32;37064;-84
2023/12/08 08:25:40;;;;;;;28.52;13.68;;;;;;;2.65;64.82;100164.75;7790408;32;39973;-83
2023/12/08 08:29:56;;;;;;;28.50;14.38;;;;;;;2.54;65.90;100161.66;7791979;32;40894;-81
2023/12/08 08:34:13;;;;;;;25.83;14.27;;;;;;;3.13;66.17;100140.97;7792152;32;37734;-82
2023/12/08 08:38:30;;;;;;;31.35;13.23;;;;;;;3.35;65.30;100138.78;7791420;32;37673;-81
2023/12/08 08:42:46;;;;;;;27.52;14.52;;;;;;;3.90;65.18;100140.09;7792283;32;39888;-80
2023/12/08 08:47:03;;;;;;;22.20;12.18;;;;;;;4.37;64.42;100118.91;7792226;32;40026;-79
2023/12/08 08:51:19;;;;;;;20.20;11.95;;;;;;;4.70;64.61;100096.12;7791845;32;38751;-84
2023/12/08 08:55:36;;;;;;;25.95;14.15;;;;;;;5.31;63.60;100102.41;7791974;32;37782;-84
2023/12/08 08:59:52;;;;;;;24.17;11.98;;;;;;;5.76;60.84;100142.56;7792053;32;39244;-87
2023/12/08 09:04:09;;;;;;;22.00;12.45;;;;;;;5.12;58.10;100155.69;7791902;32;40797;-84
2023/12/08 09:08:25;;;;;;;26.48;13.52;;;;;;;3.64;61.97;100165.34;7791831;32;37835;-81
2023/12/08 09:12:43;;;;;;;28.80;14.27;;;;;;;3.80;62.07;100177.53;7791780;32;37150;-84
2023/12/08 09:17:05;;;;;;;31.15;15.45;;;;;;;3.73;61.34;100147.91;7791729;32;39748;-85
2023/12/08 09:21:21;;;;;;;26.52;13.98;;;;;;;3.76;62.54;100153.69;7778524;32;40800;-83
2023/12/08 09:25:38;;;;;;;26.45;14.45;;;;;;;3.72;62.55;100147.03;7791654;32;38742;-84
2023/12/08 09:29:55;;;;;;;35.95;16.10;;;;;;;4.13;61.67;100131.41;7777450;32;37200;-82
2023/12/08 09:34:11;;;;;;;24.95;13.95;;;;;;;3.92;62.29;100127.22;7791183;32;39981;-84
2023/12/08 09:38:28;;;;;;;28.85;15.88;;;;;;;3.78;62.61;100109.47;7791110;32;40288;-84
2023/12/08 09:43:03;;;;;;;37.25;19.60;;;;;;;3.99;62.13;100117.19;7791069;32;38764;-85
2023/12/08 09:47:20;;;;;;;33.95;17.10;;;;;;;4.12;61.79;100106.28;7791029;32;37865;-85
2023/12/08 09:51:36;;;;;;;26.73;15.07;;;;;;;4.25;62.02;100115.31;7780520;32;39281;-85
2023/12/08 09:55:53;;;;;;;25.12;14.38;;;;;;;4.24;62.56;100097.44;7794357;32;39901;-85
2023/12/08 10:00:11;;;;;;;25.67;14.20;;;;;;;4.38;62.11;100100.84;7794282;32;38018;-86
2023/12/08 10:04:28;;;;;;;22.30;13.98;;;;;;;4.30;62.23;100094.69;7794243;32;36895;-87
2023/12/08 10:08:45;;;;;;;24.83;13.93;;;;;;;4.14;62.56;100088.00;7794283;32;39170;-88
2023/12/08 10:13:02;;;;;;;24.60;15.45;;;;;;;4.35;62.09;100094.03;7793959;32;40789;-85
2023/12/08 10:17:18;;;;;;;24.37;13.85;;;;;;;4.69;61.35;100080.97;7793726;32;37919;-84
2023/12/08 10:21:35;;;;;;;23.70;13.23;;;;;;;4.62;61.70;100080.22;7794064;32;37896;-83
2023/12/08 10:25:52;;;;;;;20.37;11.30;;;;;;;4.78;60.86;100060.72;7793843;32;39173;-84
2023/12/08 10:30:09;;;;;;;17.90;10.50;;;;;;;4.27;61.99;100075.41;7793851;32;40760;-84
2023/12/08 10:34:26;;;;;;;21.75;11.65;;;;;;;4.91;60.41;100061.59;7793548;32;37897;-84
2023/12/08 10:38:43;;;;;;;20.90;11.27;;;;;;;4.64;60.62;100070.03;7793679;32;37213;-84
2023/12/08 10:43:00;;;;;;;21.27;12.20;;;;;;;4.83;60.07;100074.37;7793701;32;39228;-84
2023/12/08 10:47:17;;;;;;;22.10;12.05;;;;;;;4.69;60.14;100075.56;7793602;32;40860;-85
2023/12/08 10:51:34;;;;;;;17.77;11.27;;;;;;;4.70;60.64;100071.81;7779649;32;37727;-84
2023/12/08 10:55:57;;;;;;;23.83;12.95;;;;;;;4.61;60.94;100074.00;7793514;32;37054;-85
2023/12/08 11:00:18;;;;;;;19.37;11.97;;;;;;;4.61;61.09;100070.50;7779432;32;39170;-84
2023/12/08 11:04:38;;;;;;;26.00;13.65;;;;;;;4.75;61.13;100055.78;7793363;32;40833;-83
2023/12/08 11:08:57;;;;;;;22.52;13.77;;;;;;;4.83;61.03;100051.91;7779899;32;37907;-84
2023/12/08 11:13:27;;;;;;;22.83;13.55;;;;;;;4.69;61.02;100045.84;7793226;32;38668;-84
2023/12/08 11:18:21;;;;;;;21.90;13.25;;;;;;;4.73;61.10;100051.66;7780387;32;39062;-84
2023/12/08 11:22:38;;;;;;;22.95;12.75;;;;;;;5.03;60.18;100041.66;7749296;32;40641;-84
2023/12/08 11:27:11;;;;;;;24.10;11.95;;;;;;;4.69;61.01;100040.47;7792946;32;37943;-83
2023/12/08 11:31:50;;;;;;;20.27;12.40;;;;;;;4.78;60.99;100028.31;7780000;32;37598;-83
2023/12/08 11:36:10;;;;;;;20.83;12.77;;;;;;;4.74;60.94;100021.69;7792947;32;39362;-82
2023/12/08 11:40:27;;;;;;;19.45;11.80;;;;;;;5.18;59.50;100008.84;7793276;32;38493;-83
2023/12/08 11:44:48;;;;;;;21.33;12.82;;;;;;;4.84;60.05;100021.16;7793008;32;39312;-85
2023/12/08 11:49:04;;;;;;;21.50;12.52;;;;;;;4.77;60.47;100005.03;7792774;32;37867;-84
2023/12/08 11:53:23;;;;;;;18.98;11.73;;;;;;;4.45;61.24;100021.44;7779165;32;38607;-84
2023/12/08 11:57:46;;;;;;;23.30;13.02;;;;;;;4.69;60.81;100008.91;7792826;32;41355;-84
2023/12/08 12:02:03;;;;;;;;;;;;;;;4.90;60.18;100020.25;7793034;32;39048;-82
2023/12/08 12:06:19;;;;;;;24.77;12.95;;;;;;;5.03;59.73;100019.25;7793072;32;37402;-83
2023/12/08 12:10:38;;;;;;;21.92;13.45;;;;;;;4.60;60.81;100031.03;7792444;32;38525;-82
2023/12/08 12:15:01;;;;;;;23.35;13.00;;;;;;;4.80;60.17;100025.38;7777956;32;40783;-85
2023/12/08 12:19:17;;;;;;;23.23;13.30;;;;;;;4.95;59.60;100024.97;7792493;32;37894;-81
2023/12/08 12:23:34;;;;;;;26.52;14.40;;;;;;;4.69;60.27;100018.84;7778576;32;37108;-83
2023/12/08 12:27:53;;;;;;;21.30;12.95;;;;;;;4.57;60.91;100021.53;7792360;32;39992;-83
2023/12/08 12:32:10;;;;;;;26.77;13.80;;;;;;;4.51;61.01;100020.53;7792386;32;39887;-82
2023/12/08 12:36:27;;;;;;;24.10;14.43;;;;;;;4.68;60.66;100018.03;7792175;32;37924;-82
2023/12/08 12:40:45;;;;;;;32.70;17.58;;;;;;;4.78;60.42;100019.38;7792334;32;36873;-82
2023/12/08 12:45:02;;;;;;;25.75;15.15;;;;;;;4.67;60.59;100011.00;7792128;32;39050;-83
2023/12/08 12:49:19;;;;;;;25.95;14.57;;;;;;;4.47;61.16;100011.25;7792237;32;40068;-82
2023/12/08 12:53:45;;;;;;;26.00;14.90;;;;;;;4.66;60.41;100003.94;7792020;32;39243;-82
2023/12/08 12:58:02;;;;;;;23.98;15.63;;;;;;;4.73;59.70;100003.03;7791915;32;37666;-82
2023/12/08 13:02:28;;;;;;;26.80;16.73;;;;;;;4.10;62.09;100000.44;7791940;32;40012;-82
2023/12/08 13:06:45;;;;;;;26.02;14.68;;;;;;;4.01;62.05;100001.78;7791510;32;40050;-82
2023/12/08 13:11:01;;;;;;;32.67;17.52;;;;;;;4.45;60.77;99997.16;7791682;32;38732;-81
2023/12/08 13:15:17;;;;;;;28.48;16.62;;;;;;;4.22;61.47;99992.41;7791694;32;36909;-82
2023/12/08 13:19:34;;;;;;;28.25;15.80;;;;;;;4.31;61.29;99995.63;7777689;32;39389;-81
2023/12/08 13:23:51;;;;;;;26.85;15.68;;;;;;;4.22;61.46;99992.41;7790992;32;40073;-69
2023/12/08 13:28:07;;;;;;;27.77;16.45;;;;;;;4.10;62.87;100000.44;7791381;32;37864;-81
2023/12/08 13:32:24;;;;;;;29.83;17.83;;;;;;;4.12;63.75;99992.13;7777860;32;426277;-81
2023/12/08 13:36:40;;;;;;;30.67;17.80;;;;;;;4.34;61.50;99995.19;7790843;32;39242;-80
2023/12/08 13:40:56;;;;;;;31.12;18.10;;;;;;;4.00;62.02;99985.81;7791035;32;40800;-81
2023/12/08 13:45:13;;;;;;;31.00;17.80;;;;;;;4.23;61.49;99994.06;7790981;32;38001;-81
2023/12/08 13:49:29;;;;;;;30.25;17.60;;;;;;;3.93;62.21;99996.66;7791025;32;38284;-81
2023/12/08 13:53:46;;;;;;;33.28;18.85;;;;;;;4.24;61.15;99995.75;7790847;32;39053;-80
2023/12/08 13:58:05;;;;;;;29.83;17.65;;;;;;;4.44;60.00;99995.50;7790562;32;40095;-81
2023/12/08 14:02:22;;;;;;;31.45;19.08;;;;;;;4.12;61.36;99997.50;7790517;32;37813;-82
2023/12/08 14:06:38;;;;;;;34.67;19.48;;;;;;;3.84;61.98;99987.22;7790409;32;37842;-81
2023/12/08 14:10:55;;;;;;;36.63;19.55;;;;;;;3.84;62.39;99993.44;7790333;32;40032;-81
2023/12/08 14:15:12;;;;;;;30.60;17.50;;;;;;;3.74;62.59;99980.47;7789505;32;39737;-81
2023/12/08 14:19:28;;;;;;;35.90;19.20;;;;;;;3.93;61.82;99978.63;7789318;32;37681;-81
2023/12/08 14:23:45;;;;;;;31.73;18.62;;;;;;;3.77;62.17;99987.28;7785055;32;37188;-81
2023/12/08 14:28:02;;;;;;;35.30;19.95;;;;;;;3.86;62.06;99982.44;7755518;32;39957;-79
2023/12/08 14:32:20;;;;;;;35.22;19.30;;;;;;;3.58;63.01;99989.12;7777839;32;39899;-81
2023/12/08 14:36:38;;;;;;;39.72;21.42;;;;;;;3.50;63.35;99990.25;7791760;32;38662;-82
2023/12/08 14:40:54;;;;;;;41.35;21.58;;;;;;;3.47;63.65;100012.25;7788771;32;37264;-80
2023/12/08 14:45:13;;;;;;;40.63;21.67;;;;;;;3.89;62.07;100030.53;7784947;32;40757;-80
2023/12/08 14:49:29;;;;;;;37.35;21.52;;;;;;;3.82;62.31;100029.78;7787966;32;40728;-81
2023/12/08 14:53:46;;;;;;;42.85;23.77;;;;;;;3.37;63.84;100055.03;7767589;32;37857;-81
2023/12/08 14:58:03;;;;;;;44.83;23.00;;;;;;;3.61;63.38;100056.09;7766123;32;37861;-81
2023/12/08 15:02:20;;;;;;;39.05;22.45;;;;;;;3.73;63.33;100054.31;7766514;32;39025;-80
2023/12/08 15:06:37;;;;;;;39.78;21.70;;;;;;;3.51;63.58;100055.75;7765813;32;40100;-81
2023/12/08 15:10:53;;;;;;;40.15;21.85;;;;;;;3.77;62.89;100043.91;7751800;32;38609;-81
2023/12/08 15:15:10;;;;;;;38.38;22.00;;;;;;;3.89;62.64;100047.53;7774029;32;37858;-81
2023/12/08 15:19:27;;;;;;;37.40;21.58;;;;;;;3.90;62.47;100043.00;7778678;32;40118;-78
2023/12/08 15:23:44;;;;;;;40.00;22.52;;;;;;;4.06;62.28;100053.19;7761457;32;39475;-78
2023/12/08 15:28:00;;;;;;;42.85;21.48;;;;;;;3.70;63.41;100052.06;7791562;32;37986;-79
2023/12/08 15:32:18;;;;;;;40.33;22.13;;;;;;;3.88;62.89;100037.81;7791729;32;37110;-79
2023/12/08 15:36:34;;;;;;;43.47;23.10;;;;;;;3.88;62.62;100040.50;7779869;32;39316;-79
2023/12/08 15:40:51;;;;;;;42.25;22.45;;;;;;;3.95;62.42;100035.06;7764350;32;39979;-81
2023/12/08 15:45:12;;;;;;;46.95;23.85;;;;;;;3.56;63.77;100037.06;7774075;32;38031;-80
2023/12/08 15:49:33;;;;;;;46.05;23.45;;;;;;;3.62;63.45;100051.50;7764590;32;37242;-80
2023/12/08 15:53:50;;;;;;;43.47;23.83;;;;;;;3.74;63.13;100056.00;7764669;32;39069;-83
2023/12/08 15:58:06;;;;;;;41.37;23.05;;;;;;;3.58;63.49;100051.94;7764400;32;39920;-83
2023/12/08 16:02:23;;;;;;;44.95;22.25;;;;;;;3.57;63.84;100052.19;7765062;32;38102;-81
2023/12/08 16:06:40;;;;;;;40.22;23.15;;;;;;;3.65;63.10;100053.78;7764891;32;37070;-83
2023/12/08 16:10:56;;;;;;;40.35;22.85;;;;;;;3.95;62.24;100041.28;7764888;32;39908;-81
2023/12/08 16:15:13;;;;;;;45.80;23.42;;;;;;;3.80;62.86;100045.38;7764813;32;39958;-80
2023/12/08 16:19:30;;;;;;;37.50;22.17;;;;;;;3.60;63.65;100048.22;7764638;32;38865;-80
2023/12/08 16:23:46;;;;;;;43.15;24.85;;;;;;;3.09;64.51;100036.56;7764584;32;37258;-81
2023/12/08 16:28:03;;;;;;;44.10;24.25;;;;;;;3.26;65.09;100040.37;7791091;32;39341;-80
2023/12/08 16:32:20;;;;;;;44.45;24.17;;;;;;;3.60;63.51;100032.84;7791619;32;39900;-80
2023/12/08 16:36:37;;;;;;;40.53;22.42;;;;;;;3.34;64.51;100032.00;7791446;32;38106;-80
2023/12/08 16:40:53;;;;;;;42.47;24.00;;;;;;;3.72;63.35;100033.78;7790137;32;36918;-81
2023/12/08 16:45:10;;;;;;;45.08;23.12;;;;;;;3.63;63.63;100031.59;7780125;32;39976;-82
2023/12/08 16:49:27;;;;;;;40.30;22.92;;;;;;;3.74;63.11;100042.50;7778762;32;40034;-81
2023/12/08 16:53:44;;;;;;;40.85;24.08;;;;;;;3.57;63.77;100049.50;7765925;32;38733;-81
2023/12/08 16:58:01;;;;;;;42.28;24.17;;;;;;;3.46;64.13;100058.28;7765221;32;37124;-83
2023/12/08 17:02:18;;;;;;;46.20;24.08;;;;;;;3.74;63.39;100072.16;7737964;32;39117;-82
2023/12/08 17:06:34;;;;;;;41.10;23.62;;;;;;;3.80;63.25;100075.03;7747293;32;40764;-83
2023/12/08 17:10:51;;;;;;;43.08;23.25;;;;;;;3.88;62.80;100067.50;7757760;32;38725;-83
2023/12/08 17:15:08;;;;;;;42.60;22.92;;;;;;;3.56;63.59;100074.78;7759067;32;37114;-81
2023/12/08 17:19:25;;;;;;;41.15;23.33;;;;;;;3.60;64.13;100075.19;7764009;32;39953;-83
2023/12/08 17:23:41;;;;;;;48.15;24.70;;;;;;;3.55;63.73;100073.12;7763793;32;40369;-82
2023/12/08 17:27:58;;;;;;;46.25;25.73;;;;;;;3.43;64.60;100091.06;7778927;32;37756;-81
2023/12/08 17:32:17;;;;;;;43.80;21.83;;;;;;;3.82;63.49;100089.13;7789314;32;37207;-83
2023/12/08 17:36:33;;;;;;;39.33;20.73;;;;;;;3.56;64.21;100096.38;7767439;32;39230;-82
2023/12/08 17:40:50;;;;;;;38.35;21.25;;;;;;;3.73;63.84;100083.19;7776970;32;39855;-81
2023/12/08 17:45:07;;;;;;;41.58;21.30;;;;;;;3.66;64.14;100085.91;7764347;32;38874;-81
2023/12/08 17:49:26;;;;;;;39.85;21.30;;;;;;;3.61;63.89;100088.44;7772186;32;37015;-83
2023/12/08 17:53:43;;;;;;;34.13;18.83;;;;;;;4.18;62.39;100088.37;7763191;32;39428;-82
2023/12/08 17:58:02;;;;;;;42.17;21.85;;;;;;;4.05;62.34;100088.50;7762916;32;40651;-82
2023/12/08 18:02:21;;;;;;;39.90;19.75;;;;;;;3.78;62.67;100088.75;7762923;32;37784;-82
2023/12/08 18:06:40;;;;;;;36.15;19.58;;;;;;;3.75;63.03;100089.16;7762525;32;39045;-83
2023/12/08 18:10:57;;;;;;;34.65;18.85;;;;;;;3.89;62.79;100092.59;7765188;32;39255;-83
2023/12/08 18:15:15;;;;;;;37.58;19.02;;;;;;;3.76;63.05;100094.34;7765589;32;39879;-84
2023/12/08 18:19:31;;;;;;;33.92;18.17;;;;;;;3.85;62.67;100099.47;7765620;32;38689;-81
2023/12/08 18:23:48;;;;;;;38.55;19.83;;;;;;;4.15;61.72;100105.00;7765627;32;37141;-83
2023/12/08 18:28:06;;;;;;;35.80;18.92;;;;;;;3.87;62.25;100108.16;7765607;32;39211;-83
2023/12/08 18:32:42;;;;;;;34.38;18.37;;;;;;;3.83;62.61;100118.56;7765474;32;41387;-81
2023/12/08 18:36:59;;;;;;;26.08;14.40;;;;;;;3.44;63.44;100141.22;7765882;32;38709;-82
2023/12/08 18:41:16;;;;;;;24.23;13.90;;;;;;;3.85;60.60;100134.53;7765469;32;37763;-82
2023/12/08 18:45:33;;;;;;;21.15;13.10;;;;;;;3.35;61.29;100138.78;7765858;32;39361;-82
2023/12/08 18:50:09;;;;;;;25.02;12.73;;;;;;;3.30;61.51;100130.53;7765619;32;39967;-81
2023/12/08 18:54:35;;;;;;;21.33;12.07;;;;;;;3.36;61.27;100134.22;7765261;32;37893;-83
2023/12/08 18:58:56;;;;;;;23.02;12.23;;;;;;;3.30;61.42;100137.78;7765520;32;37058;-81
2023/12/08 19:03:12;;;;;;;18.08;10.98;;;;;;;3.40;60.85;100135.44;7765672;32;39199;-80
2023/12/08 19:07:28;;;;;;;21.27;12.35;;;;;;;3.21;61.77;100131.81;7770461;32;40294;-80
2023/12/08 19:11:45;;;;;;;22.87;12.77;;;;;;;3.46;61.05;100139.16;7766596;32;37920;-82
2023/12/08 19:16:04;;;;;;;20.85;12.15;;;;;;;2.69;63.87;100139.03;7768701;32;37118;-82
2023/12/08 19:20:20;;;;;;;21.15;11.35;;;;;;;3.51;61.08;100142.00;7767551;32;39302;-81
2023/12/08 19:24:37;;;;;;;17.58;10.38;;;;;;;3.14;61.63;100152.56;7792140;32;40854;-82
2023/12/08 19:28:54;;;;;;;16.87;10.13;;;;;;;3.33;61.10;100137.38;7765974;32;37880;-84
2023/12/08 19:33:12;;;;;;;18.12;10.60;;;;;;;3.08;61.30;100138.09;7765920;32;36464;-83
2023/12/08 19:37:32;;;;;;;16.92;10.40;;;;;;;2.86;61.92;100152.87;7765869;32;40026;-82
2023/12/08 19:41:48;;;;;;;18.50;10.38;;;;;;;2.38;63.40;100145.94;7765409;32;39878;-82
2023/12/08 19:46:11;;;;;;;19.45;10.63;;;;;;;2.51;63.60;100143.22;7757582;32;38045;-82